Aviation Digital Data Service (ADDS)

Output produced by METARs form (1311 UTC 01 April 2015)
found at http://aviationweather.gov/adds/metars/
 
KRDU 011304Z 0113/0212 03007KT P6SM SKC 
     TEMPO 0113/0115 07011G17KT SCT025 SCT250